Thursday, February 11, 2016
04:39 UTC
  |  Log In   |  Register Free
Airport Search:

Henry Post Aaf (Fort Sill) Airport
(KFSI)

Henry Post Aaf (Fort Sill) Airport Diagram
No Airport Diagram Available

FAA data valid effective Feb 4 2016 - Mar 31 2016 (unless otherwise noted).

 
 
 
 
 
 
 
 
 
 
 
 
 
 
Current Aviation Weather for KFSI

Weather Summary


The most recent METAR observation for FSI was updated at: 12:58 UTC
METAR for KFSI is not available. Closest METAR is for KLAW
KFSI  (most recent observation was updatred at 11:03 UTC)
110358Z AUTO 26004KT 10SM CLR 14/M01 A2995 RMK AO2 SLP140 T01371012

KLAW  (5.0 nm NE)   (most recent observation was updated at 11:03 UTC)
110353Z AUTO 00000KT 10SM CLR 09/M02 A2997 RMK AO2 SLP150 T00941017 TSNO

KDUC  (24.4 nm NW)   (most recent observation was updated at 11:04 UTC)
110415Z AUTO 22005KT 10SM CLR 12/M02 A2997 RMK AO2 TSNO

TAF for KFSI is not available.
KFSI
AMD 110345Z 1103/1204 22006KT 9999 SKC QNH2994INS BECMG 1106/1107 02009KT 9999 SKC QNH2997INS BECMG 1114/1115 01012G18KT 9999 SKC QNH3010INS TX15/1103Z TN00/1112Z AMD 110345 LAST NO AMDS AFT 1104 NEXT 1114

KLAW  (5.0 nm NE)   (most recent observation was updatred at 10:23 UTC)
102325Z 1100/1124 23009KT P6SM SKC FM110800 01012KT P6SM FEW250
GlobalAir.com is loading additional information.
 Current Weather at FSI
58.0 F° (14.5 C°)

West winds at 4.6 mph
Pressure:
29.96 in
Humidity:
34%
Wind:
West at 4.6 mph
Dew Point:
29.8 F° (-1.2 C°)
Visibility:
10.00 mi
FSI NOAA Radar




Find All Airport Services Find A Hotel Find A Rental Car Find A Golf Course Find A Restaurant $100 Hamburger



Airport Weather Forecast for KFSI

Translated METAR for KFSI (0358 UTC)
METAR:
KFSI 110358Z AUTO 26004KT 10SM CLR 14/M01 A2995 RMK AO2 SLP140 T01371012
Conditions at:
KFSI (Henry Post Aaf (Fort Sill), OK) observed 0358 UTC 10 February 2016
Temperature:
14°C (57.2°F)
Dewpoint:
-1°C (30.2°F) [RH = 35.6]
Pressure:
29.95 inches Hg (1014.2 mb)
pressure at sea level is 140 in Hg
Winds:
from the W (260 degrees) at 4.6 mph (4 knots: 2.1 m/s)
Visibility:
10 mile(s)
Ceiling:
at least 12,000 feet AGL
Clouds:
Clear below 12,000 feet AGL
Remarks:
site is un-manned
site is automated and HAS a precipitation sensor

Translated TAF for KFSI (Henry Post Aaf (Fort Sill), OK) (0345 UTC)
TAF text:
KFSI 110345Z 1103/1204 22006KT 9999 SKC QNH2994INS BECMG 1106/1107 02009KT 9999 SKC QNH2997INS BECMG 1114/1115 01012G18KT 9999 SKC QNH3010INS TX15/1103Z TN00/1112Z 110345 LAST NO AMDS AFT 1104 NEXT 1114
Forecast period:
Thursday Feb 11 2016 03:00 UTC - Friday Feb 12 2016 04:00 UTC
Forecast type:
FROM: standard forecast or significant change
Winds:
from the N (010 degrees) at 13.8 mph (12 knots: 6.2 m/s)
gusting to 20.7 mph (18 knots: 9.3 m/s)
Visibility:
Ceiling:
at least 12,000 feet AGL
at least 12,000 feet AGL
at least 12,000 feet AGL
Clouds:
Clear Skies
Clear Skies
Clear Skies
Weather:
no significant weather observed at this time
FBO's on the Field
FBO Company Facility Photos Services Transportation Aviation Fuel Prices: Prices include tax
Catering Weather Repair Courtesy Rental Type 100LL JetA JetA+ MOGAS 8087
 
Add another FBO Facility Photos Catering Weather Repair Courtesy Rental Type 100LL JetA JetA+ MOGAS 8087
Services Transportation Aviation Fuel Prices: Prices include tax
There are no FBO's currently reporting fuel at FSI. List your FBO now


model-print
model-print
model-print
model-print